sensor_id;sensor_type;location;lat;lon;timestamp;P1;durP1;ratioP1;P2;durP2;ratioP2
42092;SDS011;28974;50.316;18.960;2024-02-23T00:11:23;10.73;;;5.15;;
42092;SDS011;28974;50.316;18.960;2024-02-23T00:23:30;12.30;;;5.63;;
42092;SDS011;28974;50.316;18.960;2024-02-23T00:35:32;10.00;;;5.60;;
42092;SDS011;28974;50.316;18.960;2024-02-23T00:47:40;10.13;;;5.05;;
42092;SDS011;28974;50.316;18.960;2024-02-23T00:59:43;8.48;;;4.32;;
42092;SDS011;28974;50.316;18.960;2024-02-23T01:11:47;12.75;;;4.85;;
42092;SDS011;28974;50.316;18.960;2024-02-23T01:23:51;7.38;;;4.03;;
42092;SDS011;28974;50.316;18.960;2024-02-23T01:35:54;15.00;;;4.38;;
42092;SDS011;28974;50.316;18.960;2024-02-23T01:47:59;8.95;;;4.57;;
42092;SDS011;28974;50.316;18.960;2024-02-23T02:00:02;10.70;;;3.42;;
42092;SDS011;28974;50.316;18.960;2024-02-23T02:12:04;10.07;;;3.80;;
42092;SDS011;28974;50.316;18.960;2024-02-23T02:24:07;7.72;;;3.42;;
42092;SDS011;28974;50.316;18.960;2024-02-23T02:36:09;10.32;;;4.18;;
42092;SDS011;28974;50.316;18.960;2024-02-23T02:48:11;9.88;;;4.28;;
42092;SDS011;28974;50.316;18.960;2024-02-23T03:00:13;8.30;;;3.08;;
42092;SDS011;28974;50.316;18.960;2024-02-23T03:12:40;8.93;;;3.90;;
42092;SDS011;28974;50.316;18.960;2024-02-23T03:24:43;5.30;;;2.65;;
42092;SDS011;28974;50.316;18.960;2024-02-23T03:36:44;9.50;;;4.65;;
42092;SDS011;28974;50.316;18.960;2024-02-23T03:48:47;6.00;;;3.35;;
42092;SDS011;28974;50.316;18.960;2024-02-23T04:00:49;4.90;;;2.72;;
42092;SDS011;28974;50.316;18.960;2024-02-23T04:12:52;6.20;;;3.42;;
42092;SDS011;28974;50.316;18.960;2024-02-23T04:24:54;7.50;;;3.45;;
42092;SDS011;28974;50.316;18.960;2024-02-23T04:36:58;8.85;;;4.28;;
42092;SDS011;28974;50.316;18.960;2024-02-23T04:49:00;17.88;;;8.00;;
42092;SDS011;28974;50.316;18.960;2024-02-23T05:01:03;17.73;;;7.93;;
42092;SDS011;28974;50.316;18.960;2024-02-23T05:13:06;19.35;;;9.63;;
42092;SDS011;28974;50.316;18.960;2024-02-23T05:25:09;28.27;;;11.82;;
42092;SDS011;28974;50.316;18.960;2024-02-23T05:37:11;29.75;;;14.52;;
42092;SDS011;28974;50.316;18.960;2024-02-23T05:49:13;22.02;;;11.98;;
42092;SDS011;28974;50.316;18.960;2024-02-23T06:01:17;27.75;;;12.27;;
42092;SDS011;28974;50.316;18.960;2024-02-23T06:13:20;24.63;;;11.55;;
42092;SDS011;28974;50.316;18.960;2024-02-23T06:25:23;23.65;;;10.32;;
42092;SDS011;28974;50.316;18.960;2024-02-23T06:37:26;30.10;;;13.55;;
42092;SDS011;28974;50.316;18.960;2024-02-23T06:49:29;24.65;;;12.90;;
42092;SDS011;28974;50.316;18.960;2024-02-23T07:01:31;42.35;;;17.48;;
42092;SDS011;28974;50.316;18.960;2024-02-23T07:13:35;33.03;;;18.92;;
42092;SDS011;28974;50.316;18.960;2024-02-23T07:25:37;47.85;;;19.27;;
42092;SDS011;28974;50.316;18.960;2024-02-23T07:37:38;34.45;;;15.00;;
42092;SDS011;28974;50.316;18.960;2024-02-23T07:49:42;40.67;;;16.73;;
42092;SDS011;28974;50.316;18.960;2024-02-23T08:01:46;34.35;;;16.45;;
42092;SDS011;28974;50.316;18.960;2024-02-23T08:13:49;31.73;;;12.48;;
42092;SDS011;28974;50.316;18.960;2024-02-23T08:25:51;31.48;;;15.70;;
42092;SDS011;28974;50.316;18.960;2024-02-23T08:37:54;38.05;;;18.83;;
42092;SDS011;28974;50.316;18.960;2024-02-23T08:50:00;33.50;;;14.90;;
42092;SDS011;28974;50.316;18.960;2024-02-23T09:02:03;22.30;;;11.85;;
42092;SDS011;28974;50.316;18.960;2024-02-23T09:14:06;28.75;;;13.93;;
42092;SDS011;28974;50.316;18.960;2024-02-23T09:26:08;32.38;;;14.77;;
42092;SDS011;28974;50.316;18.960;2024-02-23T09:38:15;30.43;;;16.30;;
42092;SDS011;28974;50.316;18.960;2024-02-23T09:50:17;13.60;;;6.95;;
42092;SDS011;28974;50.316;18.960;2024-02-23T10:02:22;22.40;;;9.27;;
42092;SDS011;28974;50.316;18.960;2024-02-23T10:14:25;21.05;;;11.73;;
42092;SDS011;28974;50.316;18.960;2024-02-23T10:26:27;28.70;;;14.88;;
42092;SDS011;28974;50.316;18.960;2024-02-23T10:38:31;24.58;;;13.73;;
42092;SDS011;28974;50.316;18.960;2024-02-23T10:50:33;25.00;;;11.52;;
42092;SDS011;28974;50.316;18.960;2024-02-23T11:02:41;18.27;;;9.02;;
42092;SDS011;28974;50.316;18.960;2024-02-23T11:14:45;25.58;;;11.15;;
42092;SDS011;28974;50.316;18.960;2024-02-23T11:26:50;23.17;;;11.73;;
42092;SDS011;28974;50.316;18.960;2024-02-23T11:38:52;27.92;;;13.20;;
42092;SDS011;28974;50.316;18.960;2024-02-23T11:50:54;30.73;;;14.65;;
42092;SDS011;28974;50.316;18.960;2024-02-23T12:02:57;42.95;;;15.95;;
42092;SDS011;28974;50.316;18.960;2024-02-23T12:14:59;38.55;;;18.33;;
42092;SDS011;28974;50.316;18.960;2024-02-23T12:27:02;23.60;;;13.70;;
42092;SDS011;28974;50.316;18.960;2024-02-23T12:39:03;26.88;;;12.90;;
42092;SDS011;28974;50.316;18.960;2024-02-23T12:51:04;31.38;;;15.38;;
42092;SDS011;28974;50.316;18.960;2024-02-23T13:03:06;29.20;;;13.02;;
42092;SDS011;28974;50.316;18.960;2024-02-23T13:15:08;28.60;;;15.27;;
42092;SDS011;28974;50.316;18.960;2024-02-23T13:27:11;28.98;;;14.98;;
42092;SDS011;28974;50.316;18.960;2024-02-23T13:39:14;30.42;;;14.98;;
42092;SDS011;28974;50.316;18.960;2024-02-23T13:51:15;31.65;;;16.38;;
42092;SDS011;28974;50.316;18.960;2024-02-23T14:03:17;37.35;;;16.48;;
42092;SDS011;28974;50.316;18.960;2024-02-23T14:15:19;28.88;;;14.48;;
42092;SDS011;28974;50.316;18.960;2024-02-23T14:27:21;38.53;;;18.23;;
42092;SDS011;28974;50.316;18.960;2024-02-23T14:39:25;30.13;;;14.77;;
42092;SDS011;28974;50.316;18.960;2024-02-23T14:51:29;20.17;;;12.63;;
42092;SDS011;28974;50.316;18.960;2024-02-23T15:03:33;29.95;;;21.75;;
42092;SDS011;28974;50.316;18.960;2024-02-23T15:15:36;11.27;;;5.55;;
42092;SDS011;28974;50.316;18.960;2024-02-23T15:27:41;15.85;;;7.63;;
42092;SDS011;28974;50.316;18.960;2024-02-23T15:39:42;49.50;;;26.83;;
42092;SDS011;28974;50.316;18.960;2024-02-23T15:51:45;59.35;;;31.33;;
42092;SDS011;28974;50.316;18.960;2024-02-23T16:03:48;46.40;;;25.58;;
42092;SDS011;28974;50.316;18.960;2024-02-23T16:15:50;58.08;;;24.70;;
42092;SDS011;28974;50.316;18.960;2024-02-23T16:27:52;38.25;;;19.25;;
42092;SDS011;28974;50.316;18.960;2024-02-23T16:39:56;39.13;;;17.50;;
42092;SDS011;28974;50.316;18.960;2024-02-23T16:51:58;33.70;;;16.38;;
42092;SDS011;28974;50.316;18.960;2024-02-23T17:04:00;40.53;;;18.95;;
42092;SDS011;28974;50.316;18.960;2024-02-23T17:16:06;62.45;;;30.73;;
42092;SDS011;28974;50.316;18.960;2024-02-23T17:28:09;87.28;;;40.13;;
42092;SDS011;28974;50.316;18.960;2024-02-23T17:40:14;110.45;;;49.00;;
42092;SDS011;28974;50.316;18.960;2024-02-23T17:52:17;92.63;;;45.95;;
42092;SDS011;28974;50.316;18.960;2024-02-23T18:04:20;80.88;;;38.53;;
42092;SDS011;28974;50.316;18.960;2024-02-23T18:16:24;64.22;;;29.65;;
42092;SDS011;28974;50.316;18.960;2024-02-23T18:28:27;55.40;;;25.95;;
42092;SDS011;28974;50.316;18.960;2024-02-23T18:40:32;50.33;;;24.98;;
42092;SDS011;28974;50.316;18.960;2024-02-23T18:52:36;49.50;;;24.42;;
42092;SDS011;28974;50.316;18.960;2024-02-23T19:04:38;56.45;;;27.45;;
42092;SDS011;28974;50.316;18.960;2024-02-23T19:16:40;54.35;;;27.02;;
42092;SDS011;28974;50.316;18.960;2024-02-23T19:28:43;63.30;;;29.55;;
42092;SDS011;28974;50.316;18.960;2024-02-23T19:40:45;65.78;;;33.63;;
42092;SDS011;28974;50.316;18.960;2024-02-23T19:52:49;83.15;;;37.35;;
42092;SDS011;28974;50.316;18.960;2024-02-23T20:04:53;87.22;;;40.80;;
42092;SDS011;28974;50.316;18.960;2024-02-23T20:16:57;92.70;;;44.67;;
42092;SDS011;28974;50.316;18.960;2024-02-23T20:29:02;97.05;;;47.55;;
42092;SDS011;28974;50.316;18.960;2024-02-23T20:41:05;89.00;;;46.35;;
42092;SDS011;28974;50.316;18.960;2024-02-23T20:53:08;99.55;;;48.63;;
42092;SDS011;28974;50.316;18.960;2024-02-23T21:05:10;90.28;;;43.35;;
42092;SDS011;28974;50.316;18.960;2024-02-23T21:17:12;67.80;;;36.30;;
42092;SDS011;28974;50.316;18.960;2024-02-23T21:29:16;64.90;;;31.48;;
42092;SDS011;28974;50.316;18.960;2024-02-23T21:41:19;65.70;;;30.35;;
42092;SDS011;28974;50.316;18.960;2024-02-23T21:53:23;61.58;;;30.52;;
42092;SDS011;28974;50.316;18.960;2024-02-23T22:05:26;59.65;;;28.80;;
42092;SDS011;28974;50.316;18.960;2024-02-23T22:17:29;52.88;;;22.83;;
42092;SDS011;28974;50.316;18.960;2024-02-23T22:29:32;51.60;;;20.40;;
42092;SDS011;28974;50.316;18.960;2024-02-23T22:41:35;56.78;;;25.02;;
42092;SDS011;28974;50.316;18.960;2024-02-23T22:53:40;43.75;;;19.20;;
42092;SDS011;28974;50.316;18.960;2024-02-23T23:05:46;35.67;;;16.45;;
42092;SDS011;28974;50.316;18.960;2024-02-23T23:17:50;29.80;;;13.05;;
42092;SDS011;28974;50.316;18.960;2024-02-23T23:29:55;24.25;;;12.07;;
42092;SDS011;28974;50.316;18.960;2024-02-23T23:41:57;28.92;;;13.95;;
42092;SDS011;28974;50.316;18.960;2024-02-23T23:53:59;35.25;;;15.25;;
